sensor_id;sensor_type;location;lat;lon;timestamp;P1;durP1;ratioP1;P2;durP2;ratioP2
16954;SDS011;8594;52.052;8.354;2023-01-29T00:01:18;46.93;;;21.30;;
16954;SDS011;8594;52.052;8.354;2023-01-29T00:03:45;49.37;;;22.77;;
16954;SDS011;8594;52.052;8.354;2023-01-29T00:06:13;52.17;;;23.33;;
16954;SDS011;8594;52.052;8.354;2023-01-29T00:08:40;43.47;;;20.87;;
16954;SDS011;8594;52.052;8.354;2023-01-29T00:11:07;48.10;;;22.53;;
16954;SDS011;8594;52.052;8.354;2023-01-29T00:13:35;53.13;;;22.27;;
16954;SDS011;8594;52.052;8.354;2023-01-29T00:16:01;44.00;;;20.40;;
16954;SDS011;8594;52.052;8.354;2023-01-29T00:18:29;49.57;;;20.77;;
16954;SDS011;8594;52.052;8.354;2023-01-29T00:20:56;45.40;;;20.27;;
16954;SDS011;8594;52.052;8.354;2023-01-29T00:23:25;47.70;;;21.67;;
16954;SDS011;8594;52.052;8.354;2023-01-29T00:25:52;51.90;;;22.53;;
16954;SDS011;8594;52.052;8.354;2023-01-29T00:28:19;48.87;;;22.17;;
16954;SDS011;8594;52.052;8.354;2023-01-29T00:30:46;47.97;;;21.60;;
16954;SDS011;8594;52.052;8.354;2023-01-29T00:33:12;47.50;;;22.73;;
16954;SDS011;8594;52.052;8.354;2023-01-29T00:35:39;46.10;;;20.60;;
16954;SDS011;8594;52.052;8.354;2023-01-29T00:38:07;52.90;;;23.13;;
16954;SDS011;8594;52.052;8.354;2023-01-29T00:40:37;45.00;;;21.03;;
16954;SDS011;8594;52.052;8.354;2023-01-29T00:43:23;47.17;;;21.57;;
16954;SDS011;8594;52.052;8.354;2023-01-29T00:46:07;44.67;;;21.70;;
16954;SDS011;8594;52.052;8.354;2023-01-29T00:48:34;53.10;;;23.10;;
16954;SDS011;8594;52.052;8.354;2023-01-29T00:51:01;47.30;;;23.07;;
16954;SDS011;8594;52.052;8.354;2023-01-29T00:53:29;50.47;;;22.13;;
16954;SDS011;8594;52.052;8.354;2023-01-29T00:55:57;47.50;;;22.83;;
16954;SDS011;8594;52.052;8.354;2023-01-29T00:58:24;53.03;;;24.03;;
16954;SDS011;8594;52.052;8.354;2023-01-29T01:00:53;46.17;;;22.00;;
16954;SDS011;8594;52.052;8.354;2023-01-29T01:03:20;52.67;;;24.47;;
16954;SDS011;8594;52.052;8.354;2023-01-29T01:05:46;52.83;;;23.73;;
16954;SDS011;8594;52.052;8.354;2023-01-29T01:08:13;52.50;;;23.27;;
16954;SDS011;8594;52.052;8.354;2023-01-29T01:11:00;46.80;;;21.90;;
16954;SDS011;8594;52.052;8.354;2023-01-29T01:13:30;51.23;;;22.73;;
16954;SDS011;8594;52.052;8.354;2023-01-29T01:15:57;48.03;;;22.20;;
16954;SDS011;8594;52.052;8.354;2023-01-29T01:18:27;47.00;;;22.43;;
16954;SDS011;8594;52.052;8.354;2023-01-29T01:20:55;47.23;;;21.67;;
16954;SDS011;8594;52.052;8.354;2023-01-29T01:23:23;50.07;;;22.30;;
16954;SDS011;8594;52.052;8.354;2023-01-29T01:25:51;54.47;;;24.93;;
16954;SDS011;8594;52.052;8.354;2023-01-29T01:28:19;56.13;;;22.70;;
16954;SDS011;8594;52.052;8.354;2023-01-29T01:30:46;52.53;;;24.23;;
16954;SDS011;8594;52.052;8.354;2023-01-29T01:33:13;56.73;;;23.47;;
16954;SDS011;8594;52.052;8.354;2023-01-29T01:35:40;48.87;;;22.80;;
16954;SDS011;8594;52.052;8.354;2023-01-29T01:38:07;52.30;;;23.73;;
16954;SDS011;8594;52.052;8.354;2023-01-29T01:40:34;52.03;;;23.97;;
16954;SDS011;8594;52.052;8.354;2023-01-29T01:43:00;55.70;;;24.37;;
16954;SDS011;8594;52.052;8.354;2023-01-29T01:45:29;61.00;;;25.23;;
16954;SDS011;8594;52.052;8.354;2023-01-29T01:47:59;53.07;;;23.60;;
16954;SDS011;8594;52.052;8.354;2023-01-29T01:50:31;54.27;;;24.33;;
16954;SDS011;8594;52.052;8.354;2023-01-29T01:53:06;52.33;;;22.90;;
16954;SDS011;8594;52.052;8.354;2023-01-29T01:55:38;57.33;;;24.07;;
16954;SDS011;8594;52.052;8.354;2023-01-29T01:58:13;53.70;;;23.40;;
16954;SDS011;8594;52.052;8.354;2023-01-29T02:00:49;51.03;;;23.23;;
16954;SDS011;8594;52.052;8.354;2023-01-29T02:03:17;51.93;;;23.83;;
16954;SDS011;8594;52.052;8.354;2023-01-29T02:06:05;55.43;;;23.90;;
16954;SDS011;8594;52.052;8.354;2023-01-29T02:08:52;54.80;;;23.97;;
16954;SDS011;8594;52.052;8.354;2023-01-29T02:11:42;65.83;;;24.27;;
16954;SDS011;8594;52.052;8.354;2023-01-29T02:14:10;54.83;;;23.30;;
16954;SDS011;8594;52.052;8.354;2023-01-29T02:16:38;52.80;;;24.07;;
16954;SDS011;8594;52.052;8.354;2023-01-29T02:19:06;54.60;;;23.13;;
16954;SDS011;8594;52.052;8.354;2023-01-29T02:21:49;58.07;;;23.83;;
16954;SDS011;8594;52.052;8.354;2023-01-29T02:24:36;52.50;;;23.80;;
16954;SDS011;8594;52.052;8.354;2023-01-29T02:27:34;48.87;;;23.83;;
16954;SDS011;8594;52.052;8.354;2023-01-29T02:30:35;52.40;;;22.60;;
16954;SDS011;8594;52.052;8.354;2023-01-29T02:33:08;57.17;;;24.83;;
16954;SDS011;8594;52.052;8.354;2023-01-29T02:35:49;49.73;;;22.93;;
16954;SDS011;8594;52.052;8.354;2023-01-29T02:38:25;51.07;;;23.13;;
16954;SDS011;8594;52.052;8.354;2023-01-29T02:41:02;52.33;;;23.83;;
16954;SDS011;8594;52.052;8.354;2023-01-29T02:43:40;56.00;;;23.27;;
16954;SDS011;8594;52.052;8.354;2023-01-29T02:46:15;53.60;;;24.00;;
16954;SDS011;8594;52.052;8.354;2023-01-29T02:48:50;56.93;;;24.20;;
16954;SDS011;8594;52.052;8.354;2023-01-29T02:51:25;56.13;;;23.77;;
16954;SDS011;8594;52.052;8.354;2023-01-29T02:54:01;54.03;;;24.30;;
16954;SDS011;8594;52.052;8.354;2023-01-29T02:56:34;53.17;;;23.77;;
16954;SDS011;8594;52.052;8.354;2023-01-29T02:59:08;50.47;;;24.20;;
16954;SDS011;8594;52.052;8.354;2023-01-29T03:01:43;56.80;;;25.87;;
16954;SDS011;8594;52.052;8.354;2023-01-29T03:04:19;53.67;;;23.93;;
16954;SDS011;8594;52.052;8.354;2023-01-29T03:06:59;56.53;;;25.60;;
16954;SDS011;8594;52.052;8.354;2023-01-29T03:09:31;53.27;;;23.57;;
16954;SDS011;8594;52.052;8.354;2023-01-29T03:12:05;49.47;;;22.23;;
16954;SDS011;8594;52.052;8.354;2023-01-29T03:14:59;52.53;;;24.27;;
16954;SDS011;8594;52.052;8.354;2023-01-29T03:17:40;62.57;;;25.57;;
16954;SDS011;8594;52.052;8.354;2023-01-29T03:20:18;51.13;;;23.60;;
16954;SDS011;8594;52.052;8.354;2023-01-29T03:22:56;54.50;;;24.50;;
16954;SDS011;8594;52.052;8.354;2023-01-29T03:25:40;54.87;;;24.67;;
16954;SDS011;8594;52.052;8.354;2023-01-29T03:28:26;54.73;;;25.03;;
16954;SDS011;8594;52.052;8.354;2023-01-29T03:31:14;62.47;;;24.43;;
16954;SDS011;8594;52.052;8.354;2023-01-29T03:34:04;61.50;;;24.00;;
16954;SDS011;8594;52.052;8.354;2023-01-29T03:36:41;56.27;;;24.43;;
16954;SDS011;8594;52.052;8.354;2023-01-29T03:39:19;55.07;;;24.03;;
16954;SDS011;8594;52.052;8.354;2023-01-29T03:41:48;56.30;;;25.10;;
16954;SDS011;8594;52.052;8.354;2023-01-29T03:44:25;57.80;;;24.90;;
16954;SDS011;8594;52.052;8.354;2023-01-29T03:47:08;58.40;;;26.27;;
16954;SDS011;8594;52.052;8.354;2023-01-29T03:49:46;61.93;;;26.20;;
16954;SDS011;8594;52.052;8.354;2023-01-29T03:52:24;59.87;;;25.33;;
16954;SDS011;8594;52.052;8.354;2023-01-29T03:55:09;64.07;;;27.57;;
16954;SDS011;8594;52.052;8.354;2023-01-29T03:57:43;58.27;;;25.87;;
16954;SDS011;8594;52.052;8.354;2023-01-29T04:00:21;60.93;;;26.17;;
16954;SDS011;8594;52.052;8.354;2023-01-29T04:02:59;63.40;;;26.87;;
16954;SDS011;8594;52.052;8.354;2023-01-29T04:05:32;59.90;;;26.07;;
16954;SDS011;8594;52.052;8.354;2023-01-29T04:08:08;57.70;;;26.33;;
16954;SDS011;8594;52.052;8.354;2023-01-29T04:10:40;61.70;;;26.70;;
16954;SDS011;8594;52.052;8.354;2023-01-29T04:13:10;64.00;;;26.70;;
16954;SDS011;8594;52.052;8.354;2023-01-29T04:15:41;66.83;;;26.07;;
16954;SDS011;8594;52.052;8.354;2023-01-29T04:18:15;68.00;;;26.63;;
16954;SDS011;8594;52.052;8.354;2023-01-29T04:20:42;73.33;;;28.83;;
16954;SDS011;8594;52.052;8.354;2023-01-29T04:23:17;60.30;;;25.93;;
16954;SDS011;8594;52.052;8.354;2023-01-29T04:25:47;59.97;;;25.27;;
16954;SDS011;8594;52.052;8.354;2023-01-29T04:28:40;66.73;;;26.80;;
16954;SDS011;8594;52.052;8.354;2023-01-29T04:31:20;62.27;;;26.43;;
16954;SDS011;8594;52.052;8.354;2023-01-29T04:33:57;64.33;;;27.00;;
16954;SDS011;8594;52.052;8.354;2023-01-29T04:36:40;62.50;;;26.43;;
16954;SDS011;8594;52.052;8.354;2023-01-29T04:39:24;61.37;;;26.90;;
16954;SDS011;8594;52.052;8.354;2023-01-29T04:42:04;62.27;;;26.27;;
16954;SDS011;8594;52.052;8.354;2023-01-29T04:44:38;62.77;;;27.33;;
16954;SDS011;8594;52.052;8.354;2023-01-29T04:47:17;59.33;;;26.13;;
16954;SDS011;8594;52.052;8.354;2023-01-29T04:49:58;62.87;;;27.70;;
16954;SDS011;8594;52.052;8.354;2023-01-29T04:52:36;60.40;;;26.13;;
16954;SDS011;8594;52.052;8.354;2023-01-29T04:55:12;57.53;;;25.70;;
16954;SDS011;8594;52.052;8.354;2023-01-29T04:57:51;59.67;;;25.43;;
16954;SDS011;8594;52.052;8.354;2023-01-29T05:00:27;67.00;;;26.53;;
16954;SDS011;8594;52.052;8.354;2023-01-29T05:03:00;64.67;;;26.60;;
16954;SDS011;8594;52.052;8.354;2023-01-29T05:05:29;64.43;;;26.40;;
16954;SDS011;8594;52.052;8.354;2023-01-29T05:07:56;61.67;;;26.90;;
16954;SDS011;8594;52.052;8.354;2023-01-29T05:10:24;61.60;;;26.47;;
16954;SDS011;8594;52.052;8.354;2023-01-29T05:12:53;61.43;;;25.67;;
16954;SDS011;8594;52.052;8.354;2023-01-29T05:15:25;63.17;;;26.43;;
16954;SDS011;8594;52.052;8.354;2023-01-29T05:17:58;58.57;;;25.80;;
16954;SDS011;8594;52.052;8.354;2023-01-29T05:20:26;57.37;;;26.43;;
16954;SDS011;8594;52.052;8.354;2023-01-29T05:22:58;59.07;;;25.90;;
16954;SDS011;8594;52.052;8.354;2023-01-29T05:25:26;61.40;;;25.57;;
16954;SDS011;8594;52.052;8.354;2023-01-29T05:27:55;66.43;;;26.90;;
16954;SDS011;8594;52.052;8.354;2023-01-29T05:30:31;66.20;;;26.83;;
16954;SDS011;8594;52.052;8.354;2023-01-29T05:33:01;61.00;;;26.30;;
16954;SDS011;8594;52.052;8.354;2023-01-29T05:35:30;57.47;;;26.00;;
16954;SDS011;8594;52.052;8.354;2023-01-29T05:37:57;61.53;;;26.23;;
16954;SDS011;8594;52.052;8.354;2023-01-29T05:40:24;75.03;;;27.33;;
16954;SDS011;8594;52.052;8.354;2023-01-29T05:42:51;60.33;;;26.30;;
16954;SDS011;8594;52.052;8.354;2023-01-29T05:45:18;63.23;;;25.97;;
16954;SDS011;8594;52.052;8.354;2023-01-29T05:47:45;64.97;;;27.77;;
16954;SDS011;8594;52.052;8.354;2023-01-29T05:50:12;59.03;;;25.63;;
16954;SDS011;8594;52.052;8.354;2023-01-29T05:52:41;67.63;;;27.30;;
16954;SDS011;8594;52.052;8.354;2023-01-29T05:55:08;64.97;;;27.53;;
16954;SDS011;8594;52.052;8.354;2023-01-29T05:57:36;65.33;;;26.10;;
16954;SDS011;8594;52.052;8.354;2023-01-29T06:00:05;63.10;;;26.67;;
16954;SDS011;8594;52.052;8.354;2023-01-29T06:02:36;58.87;;;25.70;;
16954;SDS011;8594;52.052;8.354;2023-01-29T06:05:03;61.57;;;25.73;;
16954;SDS011;8594;52.052;8.354;2023-01-29T06:07:30;60.83;;;26.50;;
16954;SDS011;8594;52.052;8.354;2023-01-29T06:09:59;66.57;;;27.37;;
16954;SDS011;8594;52.052;8.354;2023-01-29T06:12:25;59.93;;;26.37;;
16954;SDS011;8594;52.052;8.354;2023-01-29T06:14:52;66.80;;;27.37;;
16954;SDS011;8594;52.052;8.354;2023-01-29T06:17:19;63.67;;;27.17;;
16954;SDS011;8594;52.052;8.354;2023-01-29T06:19:46;62.13;;;26.87;;
16954;SDS011;8594;52.052;8.354;2023-01-29T06:22:13;63.43;;;26.07;;
16954;SDS011;8594;52.052;8.354;2023-01-29T06:24:39;62.07;;;25.90;;
16954;SDS011;8594;52.052;8.354;2023-01-29T06:27:07;68.10;;;26.63;;
16954;SDS011;8594;52.052;8.354;2023-01-29T06:29:34;72.00;;;28.10;;
16954;SDS011;8594;52.052;8.354;2023-01-29T06:32:01;68.00;;;28.20;;
16954;SDS011;8594;52.052;8.354;2023-01-29T06:34:28;61.90;;;27.37;;
16954;SDS011;8594;52.052;8.354;2023-01-29T06:36:54;66.40;;;27.83;;
16954;SDS011;8594;52.052;8.354;2023-01-29T06:39:21;65.10;;;26.77;;
16954;SDS011;8594;52.052;8.354;2023-01-29T06:41:48;68.93;;;28.20;;
16954;SDS011;8594;52.052;8.354;2023-01-29T06:44:16;58.70;;;26.57;;
16954;SDS011;8594;52.052;8.354;2023-01-29T06:46:43;64.60;;;26.73;;
16954;SDS011;8594;52.052;8.354;2023-01-29T06:49:10;67.73;;;29.00;;
16954;SDS011;8594;52.052;8.354;2023-01-29T06:51:37;69.87;;;27.73;;
16954;SDS011;8594;52.052;8.354;2023-01-29T06:54:03;67.63;;;27.80;;
16954;SDS011;8594;52.052;8.354;2023-01-29T06:56:32;66.17;;;27.10;;
16954;SDS011;8594;52.052;8.354;2023-01-29T06:58:59;61.40;;;26.07;;
16954;SDS011;8594;52.052;8.354;2023-01-29T07:01:27;71.97;;;27.77;;
16954;SDS011;8594;52.052;8.354;2023-01-29T07:03:54;67.90;;;28.27;;
16954;SDS011;8594;52.052;8.354;2023-01-29T07:06:25;64.67;;;26.90;;
16954;SDS011;8594;52.052;8.354;2023-01-29T07:08:53;77.07;;;29.30;;
16954;SDS011;8594;52.052;8.354;2023-01-29T07:11:20;70.20;;;28.73;;
16954;SDS011;8594;52.052;8.354;2023-01-29T07:13:48;69.27;;;27.90;;
16954;SDS011;8594;52.052;8.354;2023-01-29T07:16:14;72.63;;;29.23;;
16954;SDS011;8594;52.052;8.354;2023-01-29T07:18:43;67.37;;;27.23;;
16954;SDS011;8594;52.052;8.354;2023-01-29T07:21:09;67.60;;;28.43;;
16954;SDS011;8594;52.052;8.354;2023-01-29T07:23:36;77.70;;;30.07;;
16954;SDS011;8594;52.052;8.354;2023-01-29T07:26:04;73.80;;;29.67;;
16954;SDS011;8594;52.052;8.354;2023-01-29T07:28:34;73.97;;;29.60;;
16954;SDS011;8594;52.052;8.354;2023-01-29T07:31:02;70.97;;;29.57;;
16954;SDS011;8594;52.052;8.354;2023-01-29T07:33:30;74.57;;;29.07;;
16954;SDS011;8594;52.052;8.354;2023-01-29T07:35:58;68.47;;;28.90;;
16954;SDS011;8594;52.052;8.354;2023-01-29T07:38:25;70.20;;;28.93;;
16954;SDS011;8594;52.052;8.354;2023-01-29T07:40:52;80.13;;;30.23;;
16954;SDS011;8594;52.052;8.354;2023-01-29T07:43:19;73.47;;;28.53;;
16954;SDS011;8594;52.052;8.354;2023-01-29T07:45:48;72.70;;;29.47;;
16954;SDS011;8594;52.052;8.354;2023-01-29T07:48:15;77.57;;;31.67;;
16954;SDS011;8594;52.052;8.354;2023-01-29T07:50:42;74.87;;;31.47;;
16954;SDS011;8594;52.052;8.354;2023-01-29T07:53:12;80.53;;;31.27;;
16954;SDS011;8594;52.052;8.354;2023-01-29T07:55:42;87.10;;;31.33;;
16954;SDS011;8594;52.052;8.354;2023-01-29T07:58:10;76.60;;;30.63;;
16954;SDS011;8594;52.052;8.354;2023-01-29T08:00:37;77.30;;;30.93;;
16954;SDS011;8594;52.052;8.354;2023-01-29T08:03:05;76.93;;;29.87;;
16954;SDS011;8594;52.052;8.354;2023-01-29T08:05:36;79.40;;;30.73;;
16954;SDS011;8594;52.052;8.354;2023-01-29T08:08:03;73.43;;;29.43;;
16954;SDS011;8594;52.052;8.354;2023-01-29T08:10:32;79.13;;;31.07;;
16954;SDS011;8594;52.052;8.354;2023-01-29T08:13:00;83.03;;;32.77;;
16954;SDS011;8594;52.052;8.354;2023-01-29T08:15:28;78.80;;;30.67;;
16954;SDS011;8594;52.052;8.354;2023-01-29T08:17:56;80.00;;;31.67;;
16954;SDS011;8594;52.052;8.354;2023-01-29T08:20:22;77.70;;;31.03;;
16954;SDS011;8594;52.052;8.354;2023-01-29T08:22:56;73.77;;;30.03;;
16954;SDS011;8594;52.052;8.354;2023-01-29T08:25:25;72.17;;;28.83;;
16954;SDS011;8594;52.052;8.354;2023-01-29T08:27:53;77.97;;;29.83;;
16954;SDS011;8594;52.052;8.354;2023-01-29T08:30:22;87.70;;;31.87;;
16954;SDS011;8594;52.052;8.354;2023-01-29T08:32:52;75.47;;;29.93;;
16954;SDS011;8594;52.052;8.354;2023-01-29T08:35:19;79.10;;;31.77;;
16954;SDS011;8594;52.052;8.354;2023-01-29T08:37:51;76.00;;;31.87;;
16954;SDS011;8594;52.052;8.354;2023-01-29T08:40:19;77.67;;;32.00;;
16954;SDS011;8594;52.052;8.354;2023-01-29T08:42:46;76.53;;;31.20;;
16954;SDS011;8594;52.052;8.354;2023-01-29T08:45:14;79.63;;;31.63;;
16954;SDS011;8594;52.052;8.354;2023-01-29T08:47:45;73.13;;;31.53;;
16954;SDS011;8594;52.052;8.354;2023-01-29T08:50:13;73.03;;;30.50;;
16954;SDS011;8594;52.052;8.354;2023-01-29T08:52:40;74.90;;;30.10;;
16954;SDS011;8594;52.052;8.354;2023-01-29T08:55:07;80.57;;;32.30;;
16954;SDS011;8594;52.052;8.354;2023-01-29T08:57:35;70.50;;;30.33;;
16954;SDS011;8594;52.052;8.354;2023-01-29T09:00:02;76.00;;;31.00;;
16954;SDS011;8594;52.052;8.354;2023-01-29T09:02:33;75.77;;;30.37;;
16954;SDS011;8594;52.052;8.354;2023-01-29T09:05:00;86.50;;;31.97;;
16954;SDS011;8594;52.052;8.354;2023-01-29T09:07:27;69.57;;;29.53;;
16954;SDS011;8594;52.052;8.354;2023-01-29T09:09:54;78.30;;;32.33;;
16954;SDS011;8594;52.052;8.354;2023-01-29T09:12:21;70.43;;;28.47;;
16954;SDS011;8594;52.052;8.354;2023-01-29T09:14:48;73.80;;;28.83;;
16954;SDS011;8594;52.052;8.354;2023-01-29T09:17:15;80.50;;;32.10;;
16954;SDS011;8594;52.052;8.354;2023-01-29T09:19:43;70.70;;;29.40;;
16954;SDS011;8594;52.052;8.354;2023-01-29T09:22:10;78.47;;;31.73;;
16954;SDS011;8594;52.052;8.354;2023-01-29T09:24:37;77.83;;;28.53;;
16954;SDS011;8594;52.052;8.354;2023-01-29T09:27:04;70.50;;;29.03;;
16954;SDS011;8594;52.052;8.354;2023-01-29T09:29:31;76.70;;;31.13;;
16954;SDS011;8594;52.052;8.354;2023-01-29T09:31:58;71.00;;;30.97;;
16954;SDS011;8594;52.052;8.354;2023-01-29T09:34:25;64.67;;;26.47;;
16954;SDS011;8594;52.052;8.354;2023-01-29T09:36:53;72.13;;;28.73;;
16954;SDS011;8594;52.052;8.354;2023-01-29T09:39:20;68.53;;;29.27;;
16954;SDS011;8594;52.052;8.354;2023-01-29T09:41:50;68.00;;;28.60;;
16954;SDS011;8594;52.052;8.354;2023-01-29T09:44:26;63.60;;;26.37;;
16954;SDS011;8594;52.052;8.354;2023-01-29T09:47:18;68.23;;;27.33;;
16954;SDS011;8594;52.052;8.354;2023-01-29T09:49:50;63.43;;;26.50;;
16954;SDS011;8594;52.052;8.354;2023-01-29T09:52:24;66.20;;;26.43;;
16954;SDS011;8594;52.052;8.354;2023-01-29T09:54:56;68.27;;;26.77;;
16954;SDS011;8594;52.052;8.354;2023-01-29T09:57:30;69.47;;;27.67;;
16954;SDS011;8594;52.052;8.354;2023-01-29T10:00:12;63.23;;;26.03;;
16954;SDS011;8594;52.052;8.354;2023-01-29T10:02:54;65.47;;;26.53;;
16954;SDS011;8594;52.052;8.354;2023-01-29T10:05:40;66.90;;;26.80;;
16954;SDS011;8594;52.052;8.354;2023-01-29T10:08:35;65.97;;;27.13;;
16954;SDS011;8594;52.052;8.354;2023-01-29T10:11:38;70.47;;;27.07;;
16954;SDS011;8594;52.052;8.354;2023-01-29T10:14:17;67.90;;;27.90;;
16954;SDS011;8594;52.052;8.354;2023-01-29T10:16:58;64.03;;;25.57;;
16954;SDS011;8594;52.052;8.354;2023-01-29T10:19:51;63.43;;;26.87;;
16954;SDS011;8594;52.052;8.354;2023-01-29T10:22:39;61.53;;;26.50;;
16954;SDS011;8594;52.052;8.354;2023-01-29T10:25:26;64.73;;;26.23;;
16954;SDS011;8594;52.052;8.354;2023-01-29T10:27:54;66.87;;;27.03;;
16954;SDS011;8594;52.052;8.354;2023-01-29T10:30:28;63.67;;;26.43;;
16954;SDS011;8594;52.052;8.354;2023-01-29T10:33:00;60.70;;;26.07;;
16954;SDS011;8594;52.052;8.354;2023-01-29T10:35:30;65.37;;;26.97;;
16954;SDS011;8594;52.052;8.354;2023-01-29T10:38:11;68.03;;;25.67;;
16954;SDS011;8594;52.052;8.354;2023-01-29T10:40:57;63.07;;;25.93;;
16954;SDS011;8594;52.052;8.354;2023-01-29T10:43:42;62.47;;;25.43;;
16954;SDS011;8594;52.052;8.354;2023-01-29T10:46:25;63.70;;;25.93;;
16954;SDS011;8594;52.052;8.354;2023-01-29T10:49:14;61.83;;;25.47;;
16954;SDS011;8594;52.052;8.354;2023-01-29T10:52:04;57.43;;;25.40;;
16954;SDS011;8594;52.052;8.354;2023-01-29T10:54:54;59.23;;;24.10;;
16954;SDS011;8594;52.052;8.354;2023-01-29T10:57:37;64.67;;;25.50;;
16954;SDS011;8594;52.052;8.354;2023-01-29T11:00:21;67.13;;;25.57;;
16954;SDS011;8594;52.052;8.354;2023-01-29T11:02:52;61.03;;;25.83;;
16954;SDS011;8594;52.052;8.354;2023-01-29T11:05:19;64.67;;;24.03;;
16954;SDS011;8594;52.052;8.354;2023-01-29T11:07:59;64.43;;;25.27;;
16954;SDS011;8594;52.052;8.354;2023-01-29T11:10:35;54.97;;;23.97;;
16954;SDS011;8594;52.052;8.354;2023-01-29T11:13:12;54.83;;;23.17;;
16954;SDS011;8594;52.052;8.354;2023-01-29T11:15:41;53.60;;;22.73;;
16954;SDS011;8594;52.052;8.354;2023-01-29T11:18:09;56.03;;;22.93;;
16954;SDS011;8594;52.052;8.354;2023-01-29T11:20:39;58.23;;;24.80;;
16954;SDS011;8594;52.052;8.354;2023-01-29T11:23:19;58.93;;;24.10;;
16954;SDS011;8594;52.052;8.354;2023-01-29T11:25:52;56.37;;;23.53;;
16954;SDS011;8594;52.052;8.354;2023-01-29T11:28:35;57.27;;;24.23;;
16954;SDS011;8594;52.052;8.354;2023-01-29T11:34:03;56.13;;;23.27;;
16954;SDS011;8594;52.052;8.354;2023-01-29T11:36:45;61.03;;;22.50;;
16954;SDS011;8594;52.052;8.354;2023-01-29T11:39:23;53.90;;;22.37;;
16954;SDS011;8594;52.052;8.354;2023-01-29T11:41:53;56.90;;;23.03;;
16954;SDS011;8594;52.052;8.354;2023-01-29T11:44:28;55.70;;;23.67;;
16954;SDS011;8594;52.052;8.354;2023-01-29T11:47:06;59.20;;;23.43;;
16954;SDS011;8594;52.052;8.354;2023-01-29T11:49:43;53.73;;;23.27;;
16954;SDS011;8594;52.052;8.354;2023-01-29T11:52:14;61.97;;;23.73;;
16954;SDS011;8594;52.052;8.354;2023-01-29T11:54:46;59.23;;;24.10;;
16954;SDS011;8594;52.052;8.354;2023-01-29T11:57:22;49.57;;;21.93;;
16954;SDS011;8594;52.052;8.354;2023-01-29T11:59:56;51.10;;;22.80;;
16954;SDS011;8594;52.052;8.354;2023-01-29T12:02:32;56.07;;;21.90;;
16954;SDS011;8594;52.052;8.354;2023-01-29T12:05:04;51.43;;;21.50;;
16954;SDS011;8594;52.052;8.354;2023-01-29T12:07:40;55.00;;;22.47;;
16954;SDS011;8594;52.052;8.354;2023-01-29T12:13:05;55.37;;;22.73;;
16954;SDS011;8594;52.052;8.354;2023-01-29T12:15:45;50.27;;;20.97;;
16954;SDS011;8594;52.052;8.354;2023-01-29T12:18:15;58.03;;;22.27;;
16954;SDS011;8594;52.052;8.354;2023-01-29T12:20:51;56.57;;;22.90;;
16954;SDS011;8594;52.052;8.354;2023-01-29T12:23:24;55.47;;;22.83;;
16954;SDS011;8594;52.052;8.354;2023-01-29T12:26:01;55.90;;;22.03;;
16954;SDS011;8594;52.052;8.354;2023-01-29T12:28:37;49.90;;;22.17;;
16954;SDS011;8594;52.052;8.354;2023-01-29T12:31:20;59.73;;;22.40;;
16954;SDS011;8594;52.052;8.354;2023-01-29T12:34:00;57.03;;;22.17;;
16954;SDS011;8594;52.052;8.354;2023-01-29T12:36:37;50.93;;;21.57;;
16954;SDS011;8594;52.052;8.354;2023-01-29T12:39:17;50.63;;;21.47;;
16954;SDS011;8594;52.052;8.354;2023-01-29T12:41:46;52.53;;;21.83;;
16954;SDS011;8594;52.052;8.354;2023-01-29T12:44:22;52.03;;;21.33;;
16954;SDS011;8594;52.052;8.354;2023-01-29T12:47:00;54.27;;;22.80;;
16954;SDS011;8594;52.052;8.354;2023-01-29T12:49:32;53.20;;;22.07;;
16954;SDS011;8594;52.052;8.354;2023-01-29T12:52:06;51.13;;;21.23;;
16954;SDS011;8594;52.052;8.354;2023-01-29T12:54:41;54.53;;;22.73;;
16954;SDS011;8594;52.052;8.354;2023-01-29T12:57:17;48.90;;;21.13;;
16954;SDS011;8594;52.052;8.354;2023-01-29T12:59:51;52.80;;;20.67;;
16954;SDS011;8594;52.052;8.354;2023-01-29T13:02:30;53.53;;;22.43;;
16954;SDS011;8594;52.052;8.354;2023-01-29T13:05:03;53.00;;;20.77;;
16954;SDS011;8594;52.052;8.354;2023-01-29T13:07:44;49.10;;;21.03;;
16954;SDS011;8594;52.052;8.354;2023-01-29T13:10:18;53.13;;;20.60;;
16954;SDS011;8594;52.052;8.354;2023-01-29T13:12:51;50.07;;;20.87;;
16954;SDS011;8594;52.052;8.354;2023-01-29T13:15:25;54.50;;;21.90;;
16954;SDS011;8594;52.052;8.354;2023-01-29T13:18:06;52.50;;;22.20;;
16954;SDS011;8594;52.052;8.354;2023-01-29T13:21:01;57.10;;;22.40;;
16954;SDS011;8594;52.052;8.354;2023-01-29T13:23:31;56.50;;;22.13;;
16954;SDS011;8594;52.052;8.354;2023-01-29T13:26:03;50.40;;;19.83;;
16954;SDS011;8594;52.052;8.354;2023-01-29T13:28:31;55.13;;;22.80;;
16954;SDS011;8594;52.052;8.354;2023-01-29T13:33:54;55.13;;;22.10;;
16954;SDS011;8594;52.052;8.354;2023-01-29T13:36:31;53.60;;;22.83;;
16954;SDS011;8594;52.052;8.354;2023-01-29T13:39:00;54.67;;;22.17;;
16954;SDS011;8594;52.052;8.354;2023-01-29T13:41:34;55.23;;;22.03;;
16954;SDS011;8594;52.052;8.354;2023-01-29T13:44:06;52.77;;;22.00;;
16954;SDS011;8594;52.052;8.354;2023-01-29T13:46:47;58.53;;;22.40;;
16954;SDS011;8594;52.052;8.354;2023-01-29T13:49:24;51.97;;;21.93;;
16954;SDS011;8594;52.052;8.354;2023-01-29T13:51:57;55.93;;;22.30;;
16954;SDS011;8594;52.052;8.354;2023-01-29T13:54:40;50.27;;;21.27;;
16954;SDS011;8594;52.052;8.354;2023-01-29T13:57:31;55.40;;;21.93;;
16954;SDS011;8594;52.052;8.354;2023-01-29T14:03:41;53.70;;;21.60;;
16954;SDS011;8594;52.052;8.354;2023-01-29T14:06:11;53.23;;;21.50;;
16954;SDS011;8594;52.052;8.354;2023-01-29T14:12:39;49.30;;;20.73;;
16954;SDS011;8594;52.052;8.354;2023-01-29T14:15:25;47.03;;;19.43;;
16954;SDS011;8594;52.052;8.354;2023-01-29T14:17:59;48.87;;;20.40;;
16954;SDS011;8594;52.052;8.354;2023-01-29T14:20:32;45.23;;;20.10;;
16954;SDS011;8594;52.052;8.354;2023-01-29T14:23:05;51.90;;;20.43;;
16954;SDS011;8594;52.052;8.354;2023-01-29T14:25:41;55.10;;;20.73;;
16954;SDS011;8594;52.052;8.354;2023-01-29T14:28:12;52.77;;;22.37;;
16954;SDS011;8594;52.052;8.354;2023-01-29T14:30:47;47.70;;;20.27;;
16954;SDS011;8594;52.052;8.354;2023-01-29T14:33:21;46.17;;;19.50;;
16954;SDS011;8594;52.052;8.354;2023-01-29T14:35:53;56.47;;;21.90;;
16954;SDS011;8594;52.052;8.354;2023-01-29T14:38:25;58.07;;;21.70;;
16954;SDS011;8594;52.052;8.354;2023-01-29T14:41:05;50.40;;;21.73;;
16954;SDS011;8594;52.052;8.354;2023-01-29T14:43:43;51.17;;;21.07;;
16954;SDS011;8594;52.052;8.354;2023-01-29T14:49:09;51.00;;;21.50;;
16954;SDS011;8594;52.052;8.354;2023-01-29T14:51:37;49.73;;;21.77;;
16954;SDS011;8594;52.052;8.354;2023-01-29T14:57:07;55.63;;;22.17;;
16954;SDS011;8594;52.052;8.354;2023-01-29T14:59:44;47.33;;;19.30;;
16954;SDS011;8594;52.052;8.354;2023-01-29T15:02:21;54.90;;;21.87;;
16954;SDS011;8594;52.052;8.354;2023-01-29T15:04:51;55.70;;;22.20;;
16954;SDS011;8594;52.052;8.354;2023-01-29T15:07:25;52.13;;;21.47;;
16954;SDS011;8594;52.052;8.354;2023-01-29T15:10:02;49.43;;;21.30;;
16954;SDS011;8594;52.052;8.354;2023-01-29T15:12:40;52.43;;;21.00;;
16954;SDS011;8594;52.052;8.354;2023-01-29T15:15:15;52.00;;;20.60;;
16954;SDS011;8594;52.052;8.354;2023-01-29T15:17:54;49.63;;;21.63;;
16954;SDS011;8594;52.052;8.354;2023-01-29T15:20:30;52.60;;;21.80;;
16954;SDS011;8594;52.052;8.354;2023-01-29T15:22:58;49.53;;;20.90;;
16954;SDS011;8594;52.052;8.354;2023-01-29T15:25:30;52.17;;;21.30;;
16954;SDS011;8594;52.052;8.354;2023-01-29T15:28:02;52.77;;;20.67;;
16954;SDS011;8594;52.052;8.354;2023-01-29T15:30:33;46.40;;;20.50;;